sensor_id;sensor_type;location;lat;lon;timestamp;temperature;humidity
15343;DHT22;7771;48.478;8.936;2023-02-23T00:02:04;10.40;99.90
15343;DHT22;7771;48.478;8.936;2023-02-23T00:04:32;10.40;99.90
15343;DHT22;7771;48.478;8.936;2023-02-23T00:06:58;10.40;99.90
15343;DHT22;7771;48.478;8.936;2023-02-23T00:09:25;10.40;99.90
15343;DHT22;7771;48.478;8.936;2023-02-23T00:11:54;10.40;99.90
15343;DHT22;7771;48.478;8.936;2023-02-23T00:14:22;10.40;99.90
15343;DHT22;7771;48.478;8.936;2023-02-23T00:16:48;10.40;99.90
15343;DHT22;7771;48.478;8.936;2023-02-23T00:19:15;10.40;99.90
15343;DHT22;7771;48.478;8.936;2023-02-23T00:21:42;10.40;99.90
15343;DHT22;7771;48.478;8.936;2023-02-23T00:24:09;10.40;99.90
15343;DHT22;7771;48.478;8.936;2023-02-23T00:26:38;10.30;99.90
15343;DHT22;7771;48.478;8.936;2023-02-23T00:29:05;10.30;99.90
15343;DHT22;7771;48.478;8.936;2023-02-23T00:31:30;10.30;99.90
15343;DHT22;7771;48.478;8.936;2023-02-23T00:33:57;10.30;99.90
15343;DHT22;7771;48.478;8.936;2023-02-23T00:36:25;10.20;99.90
15343;DHT22;7771;48.478;8.936;2023-02-23T00:38:52;10.30;99.90
15343;DHT22;7771;48.478;8.936;2023-02-23T00:41:18;10.30;99.90
15343;DHT22;7771;48.478;8.936;2023-02-23T00:43:45;10.20;99.90
15343;DHT22;7771;48.478;8.936;2023-02-23T00:46:13;10.20;99.90
15343;DHT22;7771;48.478;8.936;2023-02-23T00:48:39;10.20;99.90
15343;DHT22;7771;48.478;8.936;2023-02-23T00:51:06;10.20;99.90
15343;DHT22;7771;48.478;8.936;2023-02-23T00:53:33;10.20;99.90
15343;DHT22;7771;48.478;8.936;2023-02-23T00:55:59;10.30;99.90
15343;DHT22;7771;48.478;8.936;2023-02-23T00:58:26;10.30;99.90
15343;DHT22;7771;48.478;8.936;2023-02-23T01:00:53;10.20;99.90
15343;DHT22;7771;48.478;8.936;2023-02-23T01:03:20;10.20;99.90
15343;DHT22;7771;48.478;8.936;2023-02-23T01:05:46;10.10;99.90
15343;DHT22;7771;48.478;8.936;2023-02-23T01:08:13;10.20;99.90
15343;DHT22;7771;48.478;8.936;2023-02-23T01:10:40;10.20;99.90
15343;DHT22;7771;48.478;8.936;2023-02-23T01:13:09;10.10;99.90
15343;DHT22;7771;48.478;8.936;2023-02-23T01:15:42;10.20;99.90
15343;DHT22;7771;48.478;8.936;2023-02-23T01:18:09;10.20;99.90
15343;DHT22;7771;48.478;8.936;2023-02-23T01:20:36;10.20;99.90
15343;DHT22;7771;48.478;8.936;2023-02-23T01:23:03;10.20;99.90
15343;DHT22;7771;48.478;8.936;2023-02-23T01:25:31;10.20;99.90
15343;DHT22;7771;48.478;8.936;2023-02-23T01:27:57;10.20;99.90
15343;DHT22;7771;48.478;8.936;2023-02-23T01:30:23;10.10;99.90
15343;DHT22;7771;48.478;8.936;2023-02-23T01:32:50;10.10;99.90
15343;DHT22;7771;48.478;8.936;2023-02-23T01:35:17;10.10;99.90
15343;DHT22;7771;48.478;8.936;2023-02-23T01:37:44;10.10;99.90
15343;DHT22;7771;48.478;8.936;2023-02-23T01:40:13;10.00;99.90
15343;DHT22;7771;48.478;8.936;2023-02-23T01:42:41;10.00;99.90
15343;DHT22;7771;48.478;8.936;2023-02-23T01:45:27;10.00;99.90
15343;DHT22;7771;48.478;8.936;2023-02-23T01:47:55;10.00;99.90
15343;DHT22;7771;48.478;8.936;2023-02-23T01:50:22;10.00;99.90
15343;DHT22;7771;48.478;8.936;2023-02-23T01:52:49;10.00;99.90
15343;DHT22;7771;48.478;8.936;2023-02-23T01:55:16;10.00;99.90
15343;DHT22;7771;48.478;8.936;2023-02-23T01:57:43;10.00;99.90
15343;DHT22;7771;48.478;8.936;2023-02-23T02:00:10;10.00;99.90
15343;DHT22;7771;48.478;8.936;2023-02-23T02:02:38;10.00;99.90
15343;DHT22;7771;48.478;8.936;2023-02-23T02:05:05;10.00;99.90
15343;DHT22;7771;48.478;8.936;2023-02-23T02:07:32;10.00;99.90
15343;DHT22;7771;48.478;8.936;2023-02-23T02:09:59;9.90;99.90
15343;DHT22;7771;48.478;8.936;2023-02-23T02:12:32;9.90;99.90
15343;DHT22;7771;48.478;8.936;2023-02-23T02:15:00;10.00;99.90
15343;DHT22;7771;48.478;8.936;2023-02-23T02:17:33;9.90;99.90
15343;DHT22;7771;48.478;8.936;2023-02-23T02:23:05;9.90;99.90
15343;DHT22;7771;48.478;8.936;2023-02-23T02:25:44;9.90;99.90
15343;DHT22;7771;48.478;8.936;2023-02-23T02:28:17;9.90;99.90
15343;DHT22;7771;48.478;8.936;2023-02-23T02:30:47;9.90;99.90
15343;DHT22;7771;48.478;8.936;2023-02-23T02:33:34;9.90;99.90
15343;DHT22;7771;48.478;8.936;2023-02-23T02:36:09;10.00;99.90
15343;DHT22;7771;48.478;8.936;2023-02-23T02:38:35;10.00;99.90
15343;DHT22;7771;48.478;8.936;2023-02-23T02:41:07;10.00;99.90
15343;DHT22;7771;48.478;8.936;2023-02-23T02:43:38;10.00;99.90
15343;DHT22;7771;48.478;8.936;2023-02-23T02:46:06;10.00;99.90
15343;DHT22;7771;48.478;8.936;2023-02-23T02:48:34;10.00;99.90
15343;DHT22;7771;48.478;8.936;2023-02-23T02:51:00;10.00;99.90
15343;DHT22;7771;48.478;8.936;2023-02-23T02:53:31;10.00;99.90
15343;DHT22;7771;48.478;8.936;2023-02-23T02:55:54;10.00;99.90
15343;DHT22;7771;48.478;8.936;2023-02-23T02:58:21;10.00;99.90
15343;DHT22;7771;48.478;8.936;2023-02-23T03:00:48;10.00;99.90
15343;DHT22;7771;48.478;8.936;2023-02-23T03:03:42;10.00;99.90
15343;DHT22;7771;48.478;8.936;2023-02-23T03:06:14;10.00;99.90
15343;DHT22;7771;48.478;8.936;2023-02-23T03:08:49;10.00;99.90
15343;DHT22;7771;48.478;8.936;2023-02-23T03:11:19;9.90;99.90
15343;DHT22;7771;48.478;8.936;2023-02-23T03:16:49;9.90;99.90
15343;DHT22;7771;48.478;8.936;2023-02-23T03:19:29;9.90;99.90
15343;DHT22;7771;48.478;8.936;2023-02-23T03:25:02;9.90;99.90
15343;DHT22;7771;48.478;8.936;2023-02-23T03:27:53;9.80;99.90
15343;DHT22;7771;48.478;8.936;2023-02-23T03:30:25;9.80;99.90
15343;DHT22;7771;48.478;8.936;2023-02-23T03:32:59;9.80;99.90
15343;DHT22;7771;48.478;8.936;2023-02-23T03:38:55;9.80;99.90
15343;DHT22;7771;48.478;8.936;2023-02-23T03:41:09;9.80;99.90
15343;DHT22;7771;48.478;8.936;2023-02-23T03:43:44;9.80;99.90
15343;DHT22;7771;48.478;8.936;2023-02-23T03:46:13;9.80;99.90
15343;DHT22;7771;48.478;8.936;2023-02-23T03:48:46;9.80;99.90
15343;DHT22;7771;48.478;8.936;2023-02-23T03:51:19;9.80;99.90
15343;DHT22;7771;48.478;8.936;2023-02-23T03:53:53;9.80;99.90
15343;DHT22;7771;48.478;8.936;2023-02-23T03:56:25;9.80;99.90
15343;DHT22;7771;48.478;8.936;2023-02-23T03:58:58;9.80;99.90
15343;DHT22;7771;48.478;8.936;2023-02-23T04:01:29;9.80;99.90
15343;DHT22;7771;48.478;8.936;2023-02-23T04:04:02;9.80;99.90
15343;DHT22;7771;48.478;8.936;2023-02-23T04:06:35;9.80;99.90
15343;DHT22;7771;48.478;8.936;2023-02-23T04:09:07;9.80;99.90
15343;DHT22;7771;48.478;8.936;2023-02-23T04:11:55;9.80;99.90
15343;DHT22;7771;48.478;8.936;2023-02-23T04:14:30;9.70;99.90
15343;DHT22;7771;48.478;8.936;2023-02-23T04:16:54;9.80;99.90
15343;DHT22;7771;48.478;8.936;2023-02-23T04:19:20;9.80;99.90
15343;DHT22;7771;48.478;8.936;2023-02-23T04:21:47;9.80;99.90
15343;DHT22;7771;48.478;8.936;2023-02-23T04:24:14;9.80;99.90
15343;DHT22;7771;48.478;8.936;2023-02-23T04:26:42;9.80;99.90
15343;DHT22;7771;48.478;8.936;2023-02-23T04:29:10;9.70;99.90
15343;DHT22;7771;48.478;8.936;2023-02-23T04:31:37;9.80;99.90
15343;DHT22;7771;48.478;8.936;2023-02-23T04:34:03;9.70;99.90
15343;DHT22;7771;48.478;8.936;2023-02-23T04:36:31;9.70;99.90
15343;DHT22;7771;48.478;8.936;2023-02-23T04:38:58;9.80;99.90
15343;DHT22;7771;48.478;8.936;2023-02-23T04:41:26;9.80;99.90
15343;DHT22;7771;48.478;8.936;2023-02-23T04:43:53;9.80;99.90
15343;DHT22;7771;48.478;8.936;2023-02-23T04:46:21;9.80;99.90
15343;DHT22;7771;48.478;8.936;2023-02-23T04:48:47;9.80;99.90
15343;DHT22;7771;48.478;8.936;2023-02-23T04:51:14;9.80;99.90
15343;DHT22;7771;48.478;8.936;2023-02-23T04:53:40;9.80;99.90
15343;DHT22;7771;48.478;8.936;2023-02-23T04:56:07;9.80;99.90
15343;DHT22;7771;48.478;8.936;2023-02-23T04:58:37;9.80;99.90
15343;DHT22;7771;48.478;8.936;2023-02-23T05:01:06;9.70;99.90
15343;DHT22;7771;48.478;8.936;2023-02-23T05:03:32;9.80;99.90
15343;DHT22;7771;48.478;8.936;2023-02-23T05:05:59;9.70;99.90
15343;DHT22;7771;48.478;8.936;2023-02-23T05:08:27;9.80;99.90
15343;DHT22;7771;48.478;8.936;2023-02-23T05:10:53;9.70;99.90
15343;DHT22;7771;48.478;8.936;2023-02-23T05:13:20;9.80;99.90
15343;DHT22;7771;48.478;8.936;2023-02-23T05:15:46;9.70;99.90
15343;DHT22;7771;48.478;8.936;2023-02-23T05:18:13;9.80;99.90
15343;DHT22;7771;48.478;8.936;2023-02-23T05:20:42;9.80;99.90
15343;DHT22;7771;48.478;8.936;2023-02-23T05:23:08;9.80;99.90
15343;DHT22;7771;48.478;8.936;2023-02-23T05:25:37;9.80;99.90
15343;DHT22;7771;48.478;8.936;2023-02-23T05:28:03;9.80;99.90
15343;DHT22;7771;48.478;8.936;2023-02-23T05:30:30;9.80;99.90
15343;DHT22;7771;48.478;8.936;2023-02-23T05:32:58;9.80;99.90
15343;DHT22;7771;48.478;8.936;2023-02-23T05:35:25;9.80;99.90
15343;DHT22;7771;48.478;8.936;2023-02-23T05:37:53;9.80;99.90
15343;DHT22;7771;48.478;8.936;2023-02-23T05:40:20;9.70;99.90
15343;DHT22;7771;48.478;8.936;2023-02-23T05:42:47;9.70;99.90
15343;DHT22;7771;48.478;8.936;2023-02-23T05:45:13;9.80;99.90
15343;DHT22;7771;48.478;8.936;2023-02-23T05:47:40;9.70;99.90
15343;DHT22;7771;48.478;8.936;2023-02-23T05:50:07;9.70;99.90
15343;DHT22;7771;48.478;8.936;2023-02-23T05:52:37;9.70;99.90
15343;DHT22;7771;48.478;8.936;2023-02-23T05:55:04;9.70;99.90
15343;DHT22;7771;48.478;8.936;2023-02-23T05:57:31;9.70;99.90
15343;DHT22;7771;48.478;8.936;2023-02-23T05:59:59;9.70;99.90
15343;DHT22;7771;48.478;8.936;2023-02-23T06:02:26;9.70;99.90
15343;DHT22;7771;48.478;8.936;2023-02-23T06:04:53;9.70;99.90
15343;DHT22;7771;48.478;8.936;2023-02-23T06:07:20;9.70;99.90
15343;DHT22;7771;48.478;8.936;2023-02-23T06:09:47;9.70;99.90
15343;DHT22;7771;48.478;8.936;2023-02-23T06:12:13;9.70;99.90
15343;DHT22;7771;48.478;8.936;2023-02-23T06:14:40;9.60;99.90
15343;DHT22;7771;48.478;8.936;2023-02-23T06:17:07;9.60;99.90
15343;DHT22;7771;48.478;8.936;2023-02-23T06:19:45;9.50;99.90
15343;DHT22;7771;48.478;8.936;2023-02-23T06:22:11;9.60;99.90
15343;DHT22;7771;48.478;8.936;2023-02-23T06:24:38;9.60;99.90
15343;DHT22;7771;48.478;8.936;2023-02-23T06:27:05;9.60;99.90
15343;DHT22;7771;48.478;8.936;2023-02-23T06:29:32;9.50;99.90
15343;DHT22;7771;48.478;8.936;2023-02-23T06:31:59;9.50;99.90
15343;DHT22;7771;48.478;8.936;2023-02-23T06:34:26;9.50;99.90
15343;DHT22;7771;48.478;8.936;2023-02-23T06:36:53;9.60;99.90
15343;DHT22;7771;48.478;8.936;2023-02-23T06:39:19;9.50;99.90
15343;DHT22;7771;48.478;8.936;2023-02-23T06:41:47;9.60;99.90
15343;DHT22;7771;48.478;8.936;2023-02-23T06:44:16;9.60;99.90
15343;DHT22;7771;48.478;8.936;2023-02-23T06:46:43;9.60;99.90
15343;DHT22;7771;48.478;8.936;2023-02-23T06:49:10;9.60;99.90
15343;DHT22;7771;48.478;8.936;2023-02-23T06:51:38;9.60;99.90
15343;DHT22;7771;48.478;8.936;2023-02-23T06:54:05;9.60;99.90
15343;DHT22;7771;48.478;8.936;2023-02-23T06:56:33;9.60;99.90
15343;DHT22;7771;48.478;8.936;2023-02-23T06:59:00;9.60;99.90
15343;DHT22;7771;48.478;8.936;2023-02-23T07:01:27;9.70;99.90
15343;DHT22;7771;48.478;8.936;2023-02-23T07:03:54;9.70;99.90
15343;DHT22;7771;48.478;8.936;2023-02-23T07:06:21;9.60;99.90
15343;DHT22;7771;48.478;8.936;2023-02-23T07:08:49;9.70;99.90
15343;DHT22;7771;48.478;8.936;2023-02-23T07:11:16;9.70;99.90
15343;DHT22;7771;48.478;8.936;2023-02-23T07:13:43;9.70;99.90
15343;DHT22;7771;48.478;8.936;2023-02-23T07:16:10;9.80;99.90
15343;DHT22;7771;48.478;8.936;2023-02-23T07:18:36;9.80;99.90
15343;DHT22;7771;48.478;8.936;2023-02-23T07:21:03;9.80;99.90
15343;DHT22;7771;48.478;8.936;2023-02-23T07:23:30;9.90;99.90
15343;DHT22;7771;48.478;8.936;2023-02-23T07:25:57;9.90;99.90
15343;DHT22;7771;48.478;8.936;2023-02-23T07:28:25;10.00;99.90
15343;DHT22;7771;48.478;8.936;2023-02-23T07:30:54;10.10;99.90
15343;DHT22;7771;48.478;8.936;2023-02-23T07:33:18;10.10;99.90
15343;DHT22;7771;48.478;8.936;2023-02-23T07:35:45;10.20;99.90
15343;DHT22;7771;48.478;8.936;2023-02-23T07:38:13;10.30;99.90
15343;DHT22;7771;48.478;8.936;2023-02-23T07:40:40;10.30;99.90
15343;DHT22;7771;48.478;8.936;2023-02-23T07:43:06;10.40;99.90
15343;DHT22;7771;48.478;8.936;2023-02-23T07:45:34;10.40;99.90
15343;DHT22;7771;48.478;8.936;2023-02-23T07:48:00;10.50;99.90
15343;DHT22;7771;48.478;8.936;2023-02-23T07:50:28;10.50;99.90
15343;DHT22;7771;48.478;8.936;2023-02-23T07:52:55;10.50;99.90
15343;DHT22;7771;48.478;8.936;2023-02-23T07:55:23;10.60;99.90
15343;DHT22;7771;48.478;8.936;2023-02-23T07:57:51;10.60;99.90
15343;DHT22;7771;48.478;8.936;2023-02-23T08:00:18;10.60;99.90
15343;DHT22;7771;48.478;8.936;2023-02-23T08:02:45;10.70;99.90
15343;DHT22;7771;48.478;8.936;2023-02-23T08:05:12;10.70;99.90
15343;DHT22;7771;48.478;8.936;2023-02-23T08:07:39;10.70;99.90
15343;DHT22;7771;48.478;8.936;2023-02-23T08:10:06;10.70;99.90
15343;DHT22;7771;48.478;8.936;2023-02-23T08:12:34;10.70;99.90
15343;DHT22;7771;48.478;8.936;2023-02-23T08:15:01;10.80;99.90
15343;DHT22;7771;48.478;8.936;2023-02-23T08:17:28;10.80;99.90
15343;DHT22;7771;48.478;8.936;2023-02-23T08:19:55;10.80;99.90
15343;DHT22;7771;48.478;8.936;2023-02-23T08:22:22;10.80;99.90
15343;DHT22;7771;48.478;8.936;2023-02-23T08:24:49;10.80;99.90
15343;DHT22;7771;48.478;8.936;2023-02-23T08:27:16;10.90;99.90
15343;DHT22;7771;48.478;8.936;2023-02-23T08:29:43;11.00;99.90
15343;DHT22;7771;48.478;8.936;2023-02-23T08:32:09;11.00;99.90
15343;DHT22;7771;48.478;8.936;2023-02-23T08:34:39;11.00;99.90
15343;DHT22;7771;48.478;8.936;2023-02-23T08:37:06;11.00;99.90
15343;DHT22;7771;48.478;8.936;2023-02-23T08:39:32;11.00;99.90
15343;DHT22;7771;48.478;8.936;2023-02-23T08:41:59;11.10;99.90
15343;DHT22;7771;48.478;8.936;2023-02-23T08:44:26;11.10;99.90
15343;DHT22;7771;48.478;8.936;2023-02-23T08:46:54;11.10;99.90
15343;DHT22;7771;48.478;8.936;2023-02-23T08:49:21;11.10;99.90
15343;DHT22;7771;48.478;8.936;2023-02-23T08:51:48;11.10;99.90
15343;DHT22;7771;48.478;8.936;2023-02-23T08:54:15;11.20;99.90
15343;DHT22;7771;48.478;8.936;2023-02-23T08:56:42;11.30;99.90
15343;DHT22;7771;48.478;8.936;2023-02-23T08:59:09;11.30;99.90
15343;DHT22;7771;48.478;8.936;2023-02-23T09:01:36;11.40;99.90
15343;DHT22;7771;48.478;8.936;2023-02-23T09:04:03;11.40;99.90
15343;DHT22;7771;48.478;8.936;2023-02-23T09:06:29;11.50;99.90
15343;DHT22;7771;48.478;8.936;2023-02-23T09:08:56;11.60;99.90
15343;DHT22;7771;48.478;8.936;2023-02-23T09:11:23;11.70;99.90
15343;DHT22;7771;48.478;8.936;2023-02-23T09:13:50;11.90;99.90
15343;DHT22;7771;48.478;8.936;2023-02-23T09:16:16;12.10;99.90
15343;DHT22;7771;48.478;8.936;2023-02-23T09:18:43;12.40;99.90
15343;DHT22;7771;48.478;8.936;2023-02-23T09:21:13;12.60;99.90
15343;DHT22;7771;48.478;8.936;2023-02-23T09:23:39;12.80;99.90
15343;DHT22;7771;48.478;8.936;2023-02-23T09:26:06;13.00;99.90
15343;DHT22;7771;48.478;8.936;2023-02-23T09:28:33;13.20;99.90
15343;DHT22;7771;48.478;8.936;2023-02-23T09:31:05;13.30;99.90
15343;DHT22;7771;48.478;8.936;2023-02-23T09:33:30;13.50;99.90
15343;DHT22;7771;48.478;8.936;2023-02-23T09:35:58;13.70;99.90
15343;DHT22;7771;48.478;8.936;2023-02-23T09:38:25;13.80;99.90
15343;DHT22;7771;48.478;8.936;2023-02-23T09:40:52;13.90;99.90
15343;DHT22;7771;48.478;8.936;2023-02-23T09:43:41;13.90;99.90
15343;DHT22;7771;48.478;8.936;2023-02-23T09:46:21;13.90;99.90
15343;DHT22;7771;48.478;8.936;2023-02-23T09:48:44;13.90;99.90
15343;DHT22;7771;48.478;8.936;2023-02-23T09:51:14;13.90;99.90
15343;DHT22;7771;48.478;8.936;2023-02-23T09:53:39;14.00;99.90
15343;DHT22;7771;48.478;8.936;2023-02-23T09:56:11;14.10;99.90
15343;DHT22;7771;48.478;8.936;2023-02-23T09:58:36;14.20;99.90
15343;DHT22;7771;48.478;8.936;2023-02-23T10:01:18;14.40;99.90
15343;DHT22;7771;48.478;8.936;2023-02-23T10:03:38;14.40;99.90
15343;DHT22;7771;48.478;8.936;2023-02-23T10:06:06;14.60;99.90
15343;DHT22;7771;48.478;8.936;2023-02-23T10:08:41;14.80;99.90
15343;DHT22;7771;48.478;8.936;2023-02-23T10:12:18;14.90;99.90
15343;DHT22;7771;48.478;8.936;2023-02-23T10:19:13;15.00;99.90
15343;DHT22;7771;48.478;8.936;2023-02-23T10:21:39;14.90;99.90
15343;DHT22;7771;48.478;8.936;2023-02-23T10:24:09;14.80;99.90
15343;DHT22;7771;48.478;8.936;2023-02-23T10:26:43;14.70;99.90
15343;DHT22;7771;48.478;8.936;2023-02-23T10:29:18;14.60;99.90
15343;DHT22;7771;48.478;8.936;2023-02-23T10:31:43;14.50;99.90
15343;DHT22;7771;48.478;8.936;2023-02-23T10:34:12;14.40;99.90
15343;DHT22;7771;48.478;8.936;2023-02-23T10:36:38;14.30;99.90
15343;DHT22;7771;48.478;8.936;2023-02-23T10:39:04;14.20;99.90
15343;DHT22;7771;48.478;8.936;2023-02-23T10:41:31;14.20;99.90
15343;DHT22;7771;48.478;8.936;2023-02-23T10:43:58;14.10;99.90
15343;DHT22;7771;48.478;8.936;2023-02-23T10:46:28;14.10;99.90
15343;DHT22;7771;48.478;8.936;2023-02-23T10:48:52;14.10;99.90
15343;DHT22;7771;48.478;8.936;2023-02-23T10:51:21;14.10;99.90
15343;DHT22;7771;48.478;8.936;2023-02-23T10:53:46;14.20;99.90
15343;DHT22;7771;48.478;8.936;2023-02-23T10:56:14;14.30;99.90
15343;DHT22;7771;48.478;8.936;2023-02-23T10:58:46;14.30;99.90
15343;DHT22;7771;48.478;8.936;2023-02-23T11:01:14;14.40;99.90
15343;DHT22;7771;48.478;8.936;2023-02-23T11:03:43;14.50;99.90
15343;DHT22;7771;48.478;8.936;2023-02-23T11:06:26;14.60;99.90
15343;DHT22;7771;48.478;8.936;2023-02-23T11:08:52;14.70;99.90
15343;DHT22;7771;48.478;8.936;2023-02-23T11:11:21;14.70;99.90
15343;DHT22;7771;48.478;8.936;2023-02-23T11:13:47;14.80;99.90
15343;DHT22;7771;48.478;8.936;2023-02-23T11:16:19;14.90;99.90
15343;DHT22;7771;48.478;8.936;2023-02-23T11:19:05;14.90;99.90
15343;DHT22;7771;48.478;8.936;2023-02-23T11:21:32;15.10;99.90
15343;DHT22;7771;48.478;8.936;2023-02-23T11:26:44;15.30;99.90
15343;DHT22;7771;48.478;8.936;2023-02-23T11:31:59;15.40;99.90
15343;DHT22;7771;48.478;8.936;2023-02-23T11:34:29;15.40;99.90
15343;DHT22;7771;48.478;8.936;2023-02-23T11:37:02;15.40;99.90
15343;DHT22;7771;48.478;8.936;2023-02-23T11:39:26;15.50;99.90
15343;DHT22;7771;48.478;8.936;2023-02-23T11:42:05;15.50;99.90
15343;DHT22;7771;48.478;8.936;2023-02-23T11:44:29;15.50;99.90
15343;DHT22;7771;48.478;8.936;2023-02-23T11:46:56;15.50;99.90
15343;DHT22;7771;48.478;8.936;2023-02-23T11:49:26;15.60;99.90
15343;DHT22;7771;48.478;8.936;2023-02-23T11:51:53;15.50;99.90
15343;DHT22;7771;48.478;8.936;2023-02-23T11:54:35;15.50;99.90
15343;DHT22;7771;48.478;8.936;2023-02-23T11:57:02;15.60;99.90
15343;DHT22;7771;48.478;8.936;2023-02-23T11:59:31;15.60;99.90
15343;DHT22;7771;48.478;8.936;2023-02-23T12:02:02;15.60;99.90
15343;DHT22;7771;48.478;8.936;2023-02-23T12:04:26;15.60;99.90
15343;DHT22;7771;48.478;8.936;2023-02-23T12:06:53;15.60;99.90
15343;DHT22;7771;48.478;8.936;2023-02-23T12:09:26;15.50;99.90
15343;DHT22;7771;48.478;8.936;2023-02-23T12:11:59;15.60;99.90
15343;DHT22;7771;48.478;8.936;2023-02-23T12:14:29;15.50;99.90
15343;DHT22;7771;48.478;8.936;2023-02-23T12:16:58;15.50;99.90
15343;DHT22;7771;48.478;8.936;2023-02-23T12:22:10;15.40;99.90
15343;DHT22;7771;48.478;8.936;2023-02-23T12:24:56;15.40;99.90
15343;DHT22;7771;48.478;8.936;2023-02-23T12:27:40;15.40;99.90
15343;DHT22;7771;48.478;8.936;2023-02-23T12:30:22;15.40;99.90
15343;DHT22;7771;48.478;8.936;2023-02-23T12:32:54;15.30;99.90
15343;DHT22;7771;48.478;8.936;2023-02-23T12:35:22;15.30;99.90
15343;DHT22;7771;48.478;8.936;2023-02-23T12:37:50;15.30;99.90
15343;DHT22;7771;48.478;8.936;2023-02-23T12:40:18;15.30;99.90
15343;DHT22;7771;48.478;8.936;2023-02-23T12:45:36;15.30;99.90
15343;DHT22;7771;48.478;8.936;2023-02-23T12:48:05;15.30;99.90
15343;DHT22;7771;48.478;8.936;2023-02-23T12:50:36;15.40;99.90
15343;DHT22;7771;48.478;8.936;2023-02-23T12:53:13;15.40;99.90
15343;DHT22;7771;48.478;8.936;2023-02-23T12:55:35;15.40;99.90
15343;DHT22;7771;48.478;8.936;2023-02-23T13:00:39;15.30;99.90
15343;DHT22;7771;48.478;8.936;2023-02-23T13:03:32;15.30;99.90
15343;DHT22;7771;48.478;8.936;2023-02-23T13:06:06;15.30;99.90
15343;DHT22;7771;48.478;8.936;2023-02-23T13:08:42;15.20;99.90
15343;DHT22;7771;48.478;8.936;2023-02-23T13:13:45;15.10;99.90
15343;DHT22;7771;48.478;8.936;2023-02-23T13:16:14;15.00;99.90
15343;DHT22;7771;48.478;8.936;2023-02-23T13:21:27;15.00;99.90
15343;DHT22;7771;48.478;8.936;2023-02-23T13:23:58;15.00;99.90
15343;DHT22;7771;48.478;8.936;2023-02-23T13:26:26;14.90;99.90
15343;DHT22;7771;48.478;8.936;2023-02-23T13:28:53;14.90;99.90
15343;DHT22;7771;48.478;8.936;2023-02-23T13:31:21;14.90;99.90
15343;DHT22;7771;48.478;8.936;2023-02-23T13:33:46;14.90;99.90
15343;DHT22;7771;48.478;8.936;2023-02-23T13:36:13;14.90;99.90
15343;DHT22;7771;48.478;8.936;2023-02-23T13:38:45;14.90;99.90
15343;DHT22;7771;48.478;8.936;2023-02-23T13:41:14;14.90;99.90
15343;DHT22;7771;48.478;8.936;2023-02-23T13:43:42;14.90;99.90
15343;DHT22;7771;48.478;8.936;2023-02-23T13:46:29;14.80;99.90
15343;DHT22;7771;48.478;8.936;2023-02-23T13:48:56;14.80;99.90
15343;DHT22;7771;48.478;8.936;2023-02-23T13:51:27;14.80;99.90
15343;DHT22;7771;48.478;8.936;2023-02-23T13:53:59;14.80;99.90
15343;DHT22;7771;48.478;8.936;2023-02-23T13:56:26;14.80;99.90
15343;DHT22;7771;48.478;8.936;2023-02-23T13:58:54;14.80;99.90
15343;DHT22;7771;48.478;8.936;2023-02-23T14:01:21;14.80;99.90
15343;DHT22;7771;48.478;8.936;2023-02-23T14:03:53;14.80;99.90
15343;DHT22;7771;48.478;8.936;2023-02-23T14:06:19;14.80;99.90
15343;DHT22;7771;48.478;8.936;2023-02-23T14:08:50;14.80;99.90
15343;DHT22;7771;48.478;8.936;2023-02-23T14:11:26;14.90;99.90
15343;DHT22;7771;48.478;8.936;2023-02-23T14:13:40;14.80;99.90
15343;DHT22;7771;48.478;8.936;2023-02-23T14:16:18;14.80;99.90
15343;DHT22;7771;48.478;8.936;2023-02-23T14:18:53;14.90;99.90
15343;DHT22;7771;48.478;8.936;2023-02-23T14:21:25;14.90;99.90
15343;DHT22;7771;48.478;8.936;2023-02-23T14:23:49;14.90;99.90
15343;DHT22;7771;48.478;8.936;2023-02-23T14:31:29;14.90;99.90
15343;DHT22;7771;48.478;8.936;2023-02-23T14:33:58;14.90;99.90
15343;DHT22;7771;48.478;8.936;2023-02-23T14:36:36;14.90;99.90
15343;DHT22;7771;48.478;8.936;2023-02-23T14:41:42;14.90;99.90
15343;DHT22;7771;48.478;8.936;2023-02-23T14:44:11;14.90;99.90
15343;DHT22;7771;48.478;8.936;2023-02-23T14:46:36;14.90;99.90
15343;DHT22;7771;48.478;8.936;2023-02-23T14:49:06;14.80;99.90
15343;DHT22;7771;48.478;8.936;2023-02-23T14:51:36;14.90;99.90
15343;DHT22;7771;48.478;8.936;2023-02-23T14:54:08;14.90;99.90
15343;DHT22;7771;48.478;8.936;2023-02-23T14:56:29;14.90;99.90
15343;DHT22;7771;48.478;8.936;2023-02-23T14:58:57;14.90;99.90
15343;DHT22;7771;48.478;8.936;2023-02-23T15:01:36;14.90;99.90
15343;DHT22;7771;48.478;8.936;2023-02-23T15:04:06;14.90;99.90
15343;DHT22;7771;48.478;8.936;2023-02-23T15:06:31;14.90;99.90
15343;DHT22;7771;48.478;8.936;2023-02-23T15:08:58;14.90;99.90
15343;DHT22;7771;48.478;8.936;2023-02-23T15:11:25;14.90;99.90
15343;DHT22;7771;48.478;8.936;2023-02-23T15:13:52;14.80;99.90
15343;DHT22;7771;48.478;8.936;2023-02-23T15:16:27;14.80;99.90
15343;DHT22;7771;48.478;8.936;2023-02-23T15:21:36;14.70;99.90
15343;DHT22;7771;48.478;8.936;2023-02-23T15:24:06;14.70;99.90
15343;DHT22;7771;48.478;8.936;2023-02-23T15:26:34;14.70;99.90
15343;DHT22;7771;48.478;8.936;2023-02-23T15:29:19;14.60;99.90
15343;DHT22;7771;48.478;8.936;2023-02-23T15:31:44;14.60;99.90
15343;DHT22;7771;48.478;8.936;2023-02-23T15:34:18;14.50;99.90
15343;DHT22;7771;48.478;8.936;2023-02-23T15:36:45;14.50;99.90
15343;DHT22;7771;48.478;8.936;2023-02-23T15:39:12;14.40;99.90
15343;DHT22;7771;48.478;8.936;2023-02-23T15:41:38;14.40;99.90
15343;DHT22;7771;48.478;8.936;2023-02-23T15:44:10;14.40;99.90
15343;DHT22;7771;48.478;8.936;2023-02-23T15:46:38;14.40;99.90
15343;DHT22;7771;48.478;8.936;2023-02-23T15:49:05;14.40;99.90
15343;DHT22;7771;48.478;8.936;2023-02-23T15:51:35;14.30;99.90
15343;DHT22;7771;48.478;8.936;2023-02-23T15:54:00;14.30;99.90
15343;DHT22;7771;48.478;8.936;2023-02-23T15:56:27;14.30;99.90
15343;DHT22;7771;48.478;8.936;2023-02-23T15:58:56;14.30;99.90
15343;DHT22;7771;48.478;8.936;2023-02-23T16:01:22;14.30;99.90
15343;DHT22;7771;48.478;8.936;2023-02-23T16:03:59;14.20;99.90
15343;DHT22;7771;48.478;8.936;2023-02-23T16:06:30;14.20;99.90
15343;DHT22;7771;48.478;8.936;2023-02-23T16:08:58;14.10;99.90
15343;DHT22;7771;48.478;8.936;2023-02-23T16:11:24;14.10;99.90
15343;DHT22;7771;48.478;8.936;2023-02-23T16:13:51;14.00;99.90
15343;DHT22;7771;48.478;8.936;2023-02-23T16:16:18;14.00;99.90
15343;DHT22;7771;48.478;8.936;2023-02-23T16:18:46;14.00;99.90
15343;DHT22;7771;48.478;8.936;2023-02-23T16:21:14;13.90;99.90
15343;DHT22;7771;48.478;8.936;2023-02-23T16:23:40;13.90;99.90
15343;DHT22;7771;48.478;8.936;2023-02-23T16:26:08;13.80;99.90
15343;DHT22;7771;48.478;8.936;2023-02-23T16:28:34;13.80;99.90
15343;DHT22;7771;48.478;8.936;2023-02-23T16:31:03;13.80;99.90
15343;DHT22;7771;48.478;8.936;2023-02-23T16:34:02;13.80;99.90
15343;DHT22;7771;48.478;8.936;2023-02-23T16:36:14;13.70;99.90
15343;DHT22;7771;48.478;8.936;2023-02-23T16:38:41;13.70;99.90
15343;DHT22;7771;48.478;8.936;2023-02-23T16:41:17;13.60;99.90
15343;DHT22;7771;48.478;8.936;2023-02-23T16:43:41;13.60;99.90
15343;DHT22;7771;48.478;8.936;2023-02-23T16:46:08;13.50;99.90
15343;DHT22;7771;48.478;8.936;2023-02-23T16:48:35;13.50;99.90